Time;durP1;ratioP1;P1;durP2;ratioP2;P2;SDS_P1;SDS_P2;PMS_P1;PMS_P2;Temp;Humidity;BMP_temperature;BMP_pressure;BME280_temperature;BME280_humidity;BME280_pressure;Samples;Min_cycle;Max_cycle;Signal;HPM_P1;HPM_P2
2023/08/19 00:01:16;;;;;;;;;17.33;16.00;;;;;-143.90;86.17;74270.94;4883511;28;102082;-75
2023/08/19 00:03:43;;;;;;;;;14.00;13.00;;;;;-143.90;85.95;74279.22;4884484;28;103032;-75
2023/08/19 00:06:14;;;;;;;;;16.33;14.00;;;;;-143.90;86.44;74291.59;4877300;28;102482;-75
2023/08/19 00:08:41;;;;;;;;;7.67;6.00;;;;;-143.90;86.44;74287.47;4878068;28;103290;-75
2023/08/19 00:11:08;;;;;;;;;11.00;10.00;;;;;-143.90;85.88;74291.59;4889675;28;102317;-75
2023/08/19 00:13:35;;;;;;;;;12.67;11.67;;;;;-143.90;85.37;74281.28;4875583;28;102410;-75
2023/08/19 00:16:03;;;;;;;;;16.33;14.67;;;;;-143.90;84.76;74289.53;4881948;28;102433;-75
2023/08/19 00:18:31;;;;;;;;;24.25;22.75;;;;;-143.90;84.28;74312.28;4874576;28;105041;-75
2023/08/19 00:20:58;;;;;;;;;21.33;20.67;;;;;-143.90;85.06;74308.13;4881456;28;102348;-75
2023/08/19 00:23:25;;;;;;;;;18.00;17.33;;;;;-143.90;85.06;74306.06;4879498;28;102082;-75
2023/08/19 00:25:52;;;;;;;;;18.00;18.00;;;;;-143.90;85.34;74314.34;4888442;28;102033;-75
2023/08/19 00:28:19;;;;;;;;;14.33;13.67;;;;;-143.90;85.98;74328.81;4886983;28;104288;-75
2023/08/19 00:30:45;;;;;;;;;10.67;10.67;;;;;-143.90;86.12;74332.94;4886703;28;102590;-75
2023/08/19 00:33:12;;;;;;;;;10.00;8.67;;;;;-143.90;86.74;74339.16;4888593;28;102220;-75
2023/08/19 00:35:42;;;;;;;;;13.00;12.67;;;;;-143.90;87.79;74355.69;4884739;28;102064;-75
2023/08/19 00:38:09;;;;;;;;;11.00;11.00;;;;;-143.90;88.48;74359.81;4884683;28;104021;-75
2023/08/19 00:40:36;;;;;;;;;11.00;8.00;;;;;-143.90;88.48;74349.47;4886287;28;102106;-74
2023/08/19 00:43:03;;;;;;;;;12.00;11.67;;;;;-143.90;88.53;74361.88;4890972;28;102430;-75
2023/08/19 00:45:30;;;;;;;;;10.00;8.67;;;;;-143.90;88.25;74355.69;4885428;28;103283;-75
2023/08/19 00:47:57;;;;;;;;;7.00;7.00;;;;;-143.90;87.71;74349.47;4885070;28;103996;-76
2023/08/19 00:50:25;;;;;;;;;10.00;9.00;;;;;-143.90;87.21;74357.75;4886038;28;105320;-75
2023/08/19 00:52:52;;;;;;;;;12.67;11.00;;;;;-143.90;85.73;74351.53;4900999;28;102227;-75
2023/08/19 00:55:19;;;;;;;;;14.67;13.00;;;;;-143.90;85.66;74357.75;4878734;28;102475;-76
2023/08/19 00:57:46;;;;;;;;;9.33;9.33;;;;;-143.90;86.27;74366.00;4900361;28;105982;-75
2023/08/19 01:00:13;;;;;;;;;8.00;8.00;;;;;-143.90;86.69;74359.81;4879494;28;101989;-75
2023/08/19 01:02:41;;;;;;;;;6.67;6.67;;;;;-143.90;86.87;74374.28;4887547;28;102297;-76
2023/08/19 01:05:08;;;;;;;;;8.00;6.67;;;;;-143.90;88.13;74370.16;4878858;28;102278;-75
2023/08/19 01:07:46;;;;;;;;;7.33;7.00;;;;;-143.90;88.54;74372.22;4886871;28;104221;-76
2023/08/19 01:10:21;;;;;;;;;7.33;7.00;;;;;-143.90;88.24;74376.34;4885176;28;102054;-76
2023/08/19 01:13:17;;;;;;;;;8.00;8.00;;;;;-143.90;87.75;74363.94;4894072;28;102303;-76
2023/08/19 01:16:11;;;;;;;;;9.33;8.67;;;;;-143.90;87.42;74372.22;4894108;28;103183;-76
2023/08/19 01:18:41;;;;;;;;;8.00;7.00;;;;;-143.90;87.55;74378.41;4890079;28;110287;-76
2023/08/19 01:21:09;;;;;;;;;6.67;6.00;;;;;-143.90;87.24;74382.56;4880574;28;102119;-76
2023/08/19 01:23:42;;;;;;;;;9.00;9.00;;;;;-143.90;87.88;74378.41;4882508;28;102051;-75
2023/08/19 01:26:09;;;;;;;;;0.00;0.00;;;;;-143.90;87.87;74378.41;4901338;28;102078;-76
2023/08/19 01:28:36;;;;;;;;;11.00;11.00;;;;;-143.90;87.10;74376.34;4885234;28;105394;-75
2023/08/19 01:31:03;;;;;;;;;7.33;7.33;;;;;-143.90;86.60;74386.69;4884139;28;101986;-76
2023/08/19 01:33:31;;;;;;;;;6.00;6.00;;;;;-143.90;86.97;74394.94;4880638;28;103268;-75
2023/08/19 01:36:21;;;;;;;;;9.33;9.00;;;;;-143.90;88.75;74411.50;4882408;28;102170;-75
2023/08/19 01:38:58;;;;;;;;;14.00;13.00;;;;;-143.90;91.21;74409.41;4863211;28;108359;-75
2023/08/19 01:41:29;;;;;;;;;11.33;10.00;;;;;-143.90;90.78;74407.34;4871974;28;103667;-78
2023/08/19 01:44:00;;;;;;;;;14.00;12.00;;;;;-143.90;90.19;74399.09;4884204;28;102172;-75
2023/08/19 01:46:27;;;;;;;;;9.00;9.00;;;;;-143.90;89.47;74407.34;4863310;28;103052;-75
2023/08/19 01:48:54;;;;;;;;;8.33;8.33;;;;;-143.90;88.08;74411.50;4875581;28;103074;-75
2023/08/19 01:51:21;;;;;;;;;11.67;10.00;;;;;-143.90;87.02;74407.34;4877545;28;103114;-75
2023/08/19 01:53:48;;;;;;;;;6.67;6.67;;;;;-143.90;86.68;74432.16;4885490;28;102057;-75
2023/08/19 01:56:16;;;;;;;;;8.67;8.00;;;;;-143.90;86.10;74425.97;4884873;28;102084;-75
2023/08/19 01:58:43;;;;;;;;;12.00;11.00;;;;;-143.90;86.19;74438.38;4880310;28;103595;-75
2023/08/19 02:01:11;;;;;;;;;8.00;7.33;;;;;-143.90;86.54;74430.09;4871426;28;102652;-75
2023/08/19 02:03:38;;;;;;;;;10.00;9.67;;;;;-143.90;86.49;74442.50;4873563;28;101915;-75
2023/08/19 02:06:06;;;;;;;;;9.00;9.00;;;;;-143.90;86.39;74440.44;4877447;28;102105;-75
2023/08/19 02:08:33;;;;;;;;;27.00;25.75;;;;;-143.90;86.12;74436.28;4888613;28;103772;-75
2023/08/19 02:11:00;;;;;;;;;24.25;22.75;;;;;-143.90;86.56;74438.38;4880469;28;103117;-75
2023/08/19 02:13:27;;;;;;;;;22.25;20.75;;;;;-143.90;87.77;74444.56;4863393;28;102216;-75
2023/08/19 02:15:54;;;;;;;;;15.67;14.00;;;;;-143.90;88.53;74440.44;4880915;28;102385;-75
2023/08/19 02:18:24;;;;;;;;;15.33;14.00;;;;;-143.90;89.35;74440.44;4844656;28;104132;-75
2023/08/19 02:20:51;;;;;;;;;13.67;12.00;;;;;-143.90;89.83;74442.50;4813478;28;102486;-75
2023/08/19 02:23:18;;;;;;;;;10.00;8.00;;;;;-143.90;90.51;74442.50;4849948;28;102243;-75
2023/08/19 02:25:45;;;;;;;;;12.67;12.00;;;;;-143.90;91.68;74446.63;4855339;28;104324;-75
2023/08/19 02:28:12;;;;;;;;;8.00;7.33;;;;;-143.90;91.28;74446.63;4840718;28;104913;-75
2023/08/19 02:30:41;;;;;;;;;11.67;11.33;;;;;-143.90;90.64;74444.56;4854976;28;102271;-74
2023/08/19 02:33:08;;;;;;;;;10.33;10.00;;;;;-143.90;89.37;74454.91;4827618;28;102344;-75
2023/08/19 02:35:35;;;;;;;;;10.33;9.33;;;;;-143.90;87.75;74452.84;4842092;28;104541;-75
2023/08/19 02:38:04;;;;;;;;;7.67;7.00;;;;;-143.90;87.61;74459.03;4863364;28;103404;-75
2023/08/19 02:40:31;;;;;;;;;8.00;8.00;;;;;-143.90;87.94;74461.09;4848516;28;104457;-75
2023/08/19 02:42:59;;;;;;;;;9.00;7.00;;;;;-143.90;87.79;74456.97;4866664;28;102394;-75
2023/08/19 02:45:27;;;;;;;;;8.67;7.00;;;;;-143.90;87.99;74461.09;4863301;28;102198;-75
2023/08/19 02:47:54;;;;;;;;;8.00;7.33;;;;;-143.90;88.20;74459.03;4850267;28;105149;-75
2023/08/19 02:50:23;;;;;;;;;22.25;19.50;;;;;-143.90;87.72;74461.09;4833976;28;102393;-75
2023/08/19 02:52:50;;;;;;;;;13.25;12.00;;;;;-143.90;88.76;74473.50;4876994;28;102454;-75
2023/08/19 02:55:17;;;;;;;;;18.33;17.33;;;;;-143.90;89.95;74483.84;4860354;28;102537;-75
2023/08/19 02:57:47;;;;;;;;;13.00;12.00;;;;;-143.90;90.58;74496.25;4854028;28;103715;-75
2023/08/19 03:00:15;;;;;;;;;10.67;10.67;;;;;-143.90;90.99;74502.44;4839434;28;102142;-75
2023/08/19 03:02:50;;;;;;;;;10.00;9.67;;;;;-143.90;91.05;74496.25;4868215;28;102453;-75
2023/08/19 03:05:20;;;;;;;;;13.33;13.00;;;;;-143.90;91.00;74512.78;4861742;28;102920;-75
2023/08/19 03:07:47;;;;;;;;;16.33;15.67;;;;;-143.90;91.74;74510.72;4852355;28;103509;-75
2023/08/19 03:10:17;;;;;;;;;11.00;10.33;;;;;-143.90;90.70;74510.72;4851894;28;102957;-75
2023/08/19 03:12:44;;;;;;;;;12.33;11.00;;;;;-143.90;90.18;74506.56;4884665;28;102461;-75
2023/08/19 03:15:11;;;;;;;;;12.00;12.00;;;;;-143.90;89.75;74512.78;4889273;28;102438;-75
2023/08/19 03:17:38;;;;;;;;;9.00;9.00;;;;;-143.90;89.12;74516.91;4844094;28;109880;-75
2023/08/19 03:20:06;;;;;;;;;9.67;9.33;;;;;-143.90;88.41;74518.97;4870420;28;102397;-75
2023/08/19 03:22:32;;;;;;;;;10.00;10.00;;;;;-143.90;88.55;74527.25;4886705;28;101975;-75
2023/08/19 03:25:03;;;;;;;;;11.00;11.00;;;;;-143.90;87.88;74518.97;4860960;28;105671;-75
2023/08/19 03:27:30;;;;;;;;;10.00;9.67;;;;;-143.90;87.85;74535.50;4858929;28;105771;-74
2023/08/19 03:29:57;;;;;;;;;7.00;6.00;;;;;-143.90;87.72;74535.50;4850739;28;102063;-76
2023/08/19 03:32:24;;;;;;;;;12.25;12.25;;;;;-143.90;87.62;74547.91;4877394;28;102001;-75
2023/08/19 03:34:51;;;;;;;;;12.00;11.25;;;;;-143.90;88.33;74537.56;4849760;28;102528;-75
2023/08/19 03:37:20;;;;;;;;;9.33;9.00;;;;;-143.90;88.71;74533.44;4884080;28;105600;-75
2023/08/19 03:39:49;;;;;;;;;12.00;11.00;;;;;-143.90;88.77;74525.19;4866843;28;102563;-75
2023/08/19 03:42:18;;;;;;;;;6.33;6.33;;;;;-143.90;88.75;74529.31;4891341;28;103371;-75
2023/08/19 03:44:46;;;;;;;;;9.00;8.00;;;;;-143.90;89.11;74523.09;4871855;28;103265;-74
2023/08/19 03:47:13;;;;;;;;;11.00;10.00;;;;;-143.90;88.38;74533.44;4886002;28;105523;-74
2023/08/19 03:49:40;;;;;;;;;7.33;7.33;;;;;-143.90;88.36;74529.31;4881719;28;102212;-75
2023/08/19 03:52:08;;;;;;;;;5.00;5.00;;;;;-143.90;88.46;74525.19;4868122;28;102491;-75
2023/08/19 03:54:35;;;;;;;;;5.00;5.00;;;;;-143.90;89.19;74531.38;4833469;28;103027;-75
2023/08/19 03:57:02;;;;;;;;;4.00;4.00;;;;;-143.90;89.79;74531.38;4858094;28;105300;-75
2023/08/19 03:59:29;;;;;;;;;3.00;3.00;;;;;-143.90;89.85;74518.97;4852114;28;102560;-75
2023/08/19 04:01:56;;;;;;;;;9.67;9.00;;;;;-143.90;91.00;74529.31;4875439;28;102187;-75
2023/08/19 04:04:23;;;;;;;;;13.67;12.67;;;;;-143.90;91.35;74531.38;4868849;28;105384;-75
2023/08/19 04:06:50;;;;;;;;;14.75;13.00;;;;;-143.90;91.37;74533.44;4866818;28;105028;-75
2023/08/19 04:09:17;;;;;;;;;11.25;11.25;;;;;-143.90;91.66;74537.56;4873604;28;102183;-77
2023/08/19 04:11:51;;;;;;;;;14.25;13.75;;;;;-143.90;91.59;74539.66;4879988;28;102447;-75
2023/08/19 04:14:18;;;;;;;;;11.75;11.75;;;;;-143.90;91.30;74533.44;4875199;28;102560;-75
2023/08/19 04:16:45;;;;;;;;;11.33;10.67;;;;;-143.90;90.91;74529.31;4898946;28;104673;-75
2023/08/19 04:19:12;;;;;;;;;11.33;11.00;;;;;-143.90;90.74;74518.97;4849657;28;102280;-75
2023/08/19 04:21:41;;;;;;;;;13.75;12.25;;;;;-143.90;90.01;74516.91;4841938;28;102567;-75
2023/08/19 04:24:11;;;;;;;;;13.00;12.00;;;;;-143.90;90.27;74512.78;4873835;28;102304;-75
2023/08/19 04:26:38;;;;;;;;;10.33;10.00;;;;;-143.90;89.73;74514.84;4874287;28;106043;-75
2023/08/19 04:29:05;;;;;;;;;14.25;13.50;;;;;-143.90;90.13;74510.72;4886612;28;102702;-74
2023/08/19 04:31:32;;;;;;;;;18.00;17.00;;;;;-143.90;90.53;74510.72;4858848;28;102207;-75
2023/08/19 04:33:59;;;;;;;;;15.75;14.75;;;;;-143.90;90.60;74504.50;4878346;28;102340;-75
2023/08/19 04:36:26;;;;;;;;;31.50;27.25;;;;;-143.90;89.15;74500.38;4873904;28;103642;-75
2023/08/19 04:38:53;;;;;;;;;31.25;29.00;;;;;-143.90;89.56;74487.97;4890691;28;102042;-75
2023/08/19 04:41:20;;;;;;;;;19.25;18.50;;;;;-143.90;90.05;74494.16;4835359;28;102160;-74
2023/08/19 04:43:47;;;;;;;;;17.25;16.75;;;;;-143.90;90.69;74475.56;4881932;28;102361;-75
2023/08/19 04:46:14;;;;;;;;;15.00;14.75;;;;;-143.90;91.37;74473.50;4861700;28;103187;-76
2023/08/19 04:48:41;;;;;;;;;17.50;16.25;;;;;-143.90;91.01;74465.22;4831394;28;102613;-75
2023/08/19 04:51:08;;;;;;;;;12.67;11.00;;;;;-143.90;92.21;74456.97;4851499;28;102275;-75
2023/08/19 04:53:37;;;;;;;;;10.00;10.00;;;;;-143.90;92.34;74456.97;4883181;28;102640;-76
2023/08/19 04:56:07;;;;;;;;;11.00;10.00;;;;;-143.90;91.88;74454.91;4881267;28;105227;-75
2023/08/19 04:58:35;;;;;;;;;10.00;10.00;;;;;-143.90;92.13;74444.56;4859103;28;102425;-75
2023/08/19 05:01:06;;;;;;;;;12.00;11.33;;;;;-143.90;92.24;74440.44;4887473;28;102370;-75
2023/08/19 05:03:33;;;;;;;;;11.67;10.33;;;;;-143.90;92.90;74438.38;4868920;28;103200;-75
2023/08/19 05:06:00;;;;;;;;;13.00;12.33;;;;;-143.90;92.60;74417.69;4880752;28;103037;-75
2023/08/19 05:08:30;;;;;;;;;9.33;9.33;;;;;-143.90;92.45;74399.09;4881563;28;102267;-76
2023/08/19 05:10:59;;;;;;;;;8.67;8.33;;;;;-143.90;92.40;74378.41;4865984;28;102734;-75
2023/08/19 05:13:28;;;;;;;;;7.67;7.67;;;;;-143.90;91.14;74368.09;4864907;28;102325;-75
2023/08/19 05:15:59;;;;;;;;;7.67;7.33;;;;;-143.90;90.25;74366.00;4852201;28;103084;-75
2023/08/19 05:18:29;;;;;;;;;8.00;8.00;;;;;-143.90;90.36;74357.75;4868684;28;104107;-75
2023/08/19 05:20:58;;;;;;;;;11.33;10.67;;;;;-143.90;90.33;74343.28;4862995;28;102267;-75
2023/08/19 05:23:31;;;;;;;;;14.33;13.00;;;;;-143.90;89.45;74320.53;4872682;28;102123;-75
2023/08/19 05:25:58;;;;;;;;;15.33;15.00;;;;;-143.90;88.28;74275.06;4890623;28;103350;-75
2023/08/19 05:28:25;;;;;;;;;14.00;13.67;;;;;-143.90;86.64;74256.47;4873253;28;102474;-75
2023/08/19 05:30:52;;;;;;;;;15.00;14.67;;;;;-143.90;86.43;74215.13;4887191;28;102327;-75
2023/08/19 05:33:18;;;;;;;;;11.00;11.00;;;;;-143.90;84.52;74184.13;4884665;28;102364;-75
2023/08/19 05:35:45;;;;;;;;;14.67;14.67;;;;;-143.90;83.33;74163.47;4884585;28;105693;-75
2023/08/19 05:38:12;;;;;;;;;11.67;11.00;;;;;-143.90;82.47;74130.38;4855986;28;102134;-75
2023/08/19 05:40:39;;;;;;;;;8.33;7.00;;;;;-143.90;81.25;74101.44;4870320;28;102358;-75
2023/08/19 05:43:09;;;;;;;;;9.00;8.67;;;;;-143.90;80.27;74068.38;4865033;28;102693;-76
2023/08/19 05:45:36;;;;;;;;;15.00;11.33;;;;;-143.90;77.88;74062.19;4891787;28;103518;-75
2023/08/19 05:48:03;;;;;;;;;18.00;17.33;;;;;-143.90;77.13;74047.72;4880006;28;101843;-76
2023/08/19 05:50:36;;;;;;;;;17.67;17.33;;;;;-143.90;77.94;74027.03;4857831;28;102458;-75
2023/08/19 05:53:03;;;;;;;;;22.67;22.00;;;;;-143.90;78.33;73998.13;4885627;28;102088;-75
2023/08/19 05:55:30;;;;;;;;;12.33;11.00;;;;;-143.90;75.18;73975.38;4873401;28;103333;-75
2023/08/19 05:57:57;;;;;;;;;13.67;11.33;;;;;-143.90;74.77;73954.72;4893337;28;102895;-75
2023/08/19 06:00:24;;;;;;;;;16.00;14.67;;;;;-143.90;74.20;73936.09;4891349;28;102378;-75
2023/08/19 06:02:51;;;;;;;;;22.33;20.33;;;;;-143.90;75.40;73919.56;4822938;28;102866;-75
2023/08/19 06:05:18;;;;;;;;;22.00;20.67;;;;;-143.90;73.14;73919.56;4890381;28;103302;-75
2023/08/19 06:07:45;;;;;;;;;27.33;26.00;;;;;-143.90;74.63;73903.03;4877709;28;104059;-75
2023/08/19 06:10:12;;;;;;;;;22.67;21.67;;;;;-143.90;72.84;73878.25;4887932;28;104404;-75
2023/08/19 06:12:38;;;;;;;;;27.00;24.00;;;;;-143.90;73.00;73859.63;4884677;28;102372;-75
2023/08/19 06:15:06;;;;;;;;;21.00;20.00;;;;;-143.90;69.61;73851.38;4897261;28;103873;-75
2023/08/19 06:17:33;;;;;;;;;25.67;24.00;;;;;-143.90;71.26;73834.84;4880262;28;101943;-75
2023/08/19 06:20:03;;;;;;;;;21.00;20.67;;;;;-143.90;69.79;73810.03;4865021;28;102417;-76
2023/08/19 06:22:30;;;;;;;;;21.33;21.00;;;;;-143.90;72.07;73787.31;4884684;28;102427;-75
2023/08/19 06:24:57;;;;;;;;;23.33;21.33;;;;;-143.90;68.28;73762.50;4882578;28;105696;-75
2023/08/19 06:27:24;;;;;;;;;19.00;18.00;;;;;-143.90;66.33;73776.97;4893797;28;102130;-76
2023/08/19 06:29:52;;;;;;;;;24.33;20.00;;;;;-143.90;68.62;73824.50;4888212;28;102528;-76
2023/08/19 06:32:19;;;;;;;;;22.67;22.00;;;;;-143.90;73.03;73824.50;4879244;28;102350;-75
2023/08/19 06:34:46;;;;;;;;;25.33;25.00;;;;;-143.90;70.51;73779.03;4885077;28;103343;-75
2023/08/19 06:37:24;;;;;;;;;20.00;16.00;;;;;-143.90;67.41;73745.97;4881205;28;102050;-75
2023/08/19 06:39:57;;;;;;;;;13.00;13.00;;;;;-143.90;66.93;73737.69;4884655;28;102051;-75
2023/08/19 06:42:26;;;;;;;;;21.00;20.33;;;;;-143.90;68.59;73745.97;4885952;28;102452;-76
2023/08/19 06:44:58;;;;;;;;;18.00;17.00;;;;;-143.90;67.07;73708.78;4888573;28;108633;-76
2023/08/19 06:47:31;;;;;;;;;13.67;13.67;;;;;-143.90;65.64;73692.25;4887239;28;102046;-74
2023/08/19 06:49:58;;;;;;;;;15.33;14.33;;;;;-143.90;65.63;73675.69;4883303;28;102239;-75
2023/08/19 06:52:25;;;;;;;;;12.33;11.67;;;;;-143.90;64.35;73667.44;4889260;28;102199;-76
2023/08/19 06:54:52;;;;;;;;;11.00;10.67;;;;;-143.90;65.44;73688.09;4888256;28;108269;-76
2023/08/19 06:57:29;;;;;;;;;12.33;12.33;;;;;-143.90;63.03;73673.63;4895089;28;101994;-76
2023/08/19 07:00:05;;;;;;;;;8.33;8.33;;;;;-143.90;63.78;73659.16;4885488;28;102249;-75
2023/08/19 07:02:36;;;;;;;;;19.00;17.00;;;;;-143.90;63.51;73650.91;4887263;28;102348;-75
2023/08/19 07:05:14;;;;;;;;;15.33;14.67;;;;;-143.90;65.07;73655.03;4888750;28;103232;-75
2023/08/19 07:07:46;;;;;;;;;24.00;23.33;;;;;-143.90;63.56;73648.84;4903636;28;102010;-75
2023/08/19 07:10:20;;;;;;;;;14.00;13.00;;;;;-143.90;64.76;73655.03;4885365;28;102045;-76
2023/08/19 07:12:47;;;;;;;;;9.33;9.33;;;;;-143.90;62.73;73648.84;4886699;28;102837;-75
2023/08/19 07:15:19;;;;;;;;;11.00;9.67;;;;;-143.90;62.56;73640.56;4886366;28;103945;-75
2023/08/19 07:17:47;;;;;;;;;9.00;9.00;;;;;-143.90;62.94;73638.50;4886495;28;102357;-75
2023/08/19 07:20:21;;;;;;;;;9.33;9.33;;;;;-143.90;62.16;73621.97;4887464;28;102178;-75
2023/08/19 07:22:51;;;;;;;;;11.33;11.33;;;;;-143.90;65.10;73613.72;4883873;28;102102;-75
2023/08/19 07:25:21;;;;;;;;;12.33;12.33;;;;;-143.90;62.50;73626.09;4888523;28;103451;-76
2023/08/19 07:27:49;;;;;;;;;17.00;17.00;;;;;-143.90;63.49;73721.16;4888154;28;102272;-75
2023/08/19 07:30:16;;;;;;;;;16.00;15.00;;;;;-143.90;65.00;73673.63;4888666;28;102326;-76
2023/08/19 07:32:43;;;;;;;;;15.67;15.00;;;;;-143.90;65.90;73663.31;4878049;28;102150;-76
2023/08/19 07:35:10;;;;;;;;;8.67;8.33;;;;;-143.90;65.83;73634.38;4885817;28;104189;-76
2023/08/19 07:37:37;;;;;;;;;11.00;9.67;;;;;-143.90;64.00;73617.84;4889840;28;102415;-75
2023/08/19 07:40:06;;;;;;;;;11.00;10.33;;;;;-143.90;63.65;73621.97;4886564;28;102327;-75
2023/08/19 07:42:33;;;;;;;;;18.33;17.33;;;;;-143.90;65.66;73646.78;4889630;28;102216;-75
2023/08/19 07:45:00;;;;;;;;;11.67;11.33;;;;;-143.90;63.68;73638.50;4887400;28;103274;-75
2023/08/19 07:47:26;;;;;;;;;15.00;14.33;;;;;-143.90;64.31;73611.63;4891244;28;102019;-75
2023/08/19 07:49:53;;;;;;;;;11.00;11.00;;;;;-143.90;61.95;73603.38;4893190;28;102077;-75
2023/08/19 07:52:20;;;;;;;;;17.67;16.00;;;;;-143.90;62.45;73624.03;4885780;28;102359;-75
2023/08/19 07:54:47;;;;;;;;;11.33;10.33;;;;;-143.90;61.63;73613.72;4889292;28;104439;-75
2023/08/19 07:57:14;;;;;;;;;7.00;7.00;;;;;-143.90;60.49;73588.91;4887436;28;102053;-75
2023/08/19 07:59:40;;;;;;;;;11.00;10.00;;;;;-143.90;60.17;73576.50;4886079;28;102131;-75
2023/08/19 08:02:07;;;;;;;;;11.00;10.00;;;;;-143.90;60.31;73559.97;4906991;28;102055;-75
2023/08/19 08:04:34;;;;;;;;;13.00;12.00;;;;;-143.90;59.42;73553.78;4892199;28;103296;-75
2023/08/19 08:07:01;;;;;;;;;9.00;9.00;;;;;-143.90;59.52;73555.84;4894256;28;102095;-75
2023/08/19 08:09:28;;;;;;;;;8.67;8.33;;;;;-143.90;59.73;73568.25;4893061;28;102318;-75
2023/08/19 08:11:54;;;;;;;;;13.67;13.00;;;;;-143.90;62.44;73597.16;4896135;28;102061;-75
2023/08/19 08:14:21;;;;;;;;;14.67;14.00;;;;;-143.90;61.38;73572.38;4904777;28;108743;-75
2023/08/19 08:16:48;;;;;;;;;10.67;10.67;;;;;-143.90;61.09;73557.91;4891625;28;101911;-75
2023/08/19 08:19:15;;;;;;;;;12.00;11.33;;;;;-143.90;62.13;73593.03;4890038;28;102479;-76
2023/08/19 08:21:42;;;;;;;;;13.67;13.00;;;;;-143.90;60.66;73564.09;4892787;28;102363;-75
2023/08/19 08:24:09;;;;;;;;;12.67;12.67;;;;;-143.90;61.83;73543.44;4886848;28;104258;-76
2023/08/19 08:26:36;;;;;;;;;12.00;12.00;;;;;-143.90;61.02;73522.78;4890431;28;103825;-75
2023/08/19 08:29:03;;;;;;;;;11.00;10.33;;;;;-143.90;58.88;73510.38;4892949;28;102415;-75
2023/08/19 08:31:30;;;;;;;;;8.33;8.33;;;;;-143.90;57.60;73495.91;4892379;28;103327;-76
2023/08/19 08:33:56;;;;;;;;;9.00;8.00;;;;;-143.90;57.52;73497.97;4891712;28;105313;-75
2023/08/19 08:36:23;;;;;;;;;6.67;6.67;;;;;-143.90;55.41;73485.56;4896140;28;102227;-75
2023/08/19 08:38:50;;;;;;;;;8.00;7.00;;;;;-143.90;57.27;73479.38;4889425;28;106252;-75
2023/08/19 08:41:18;;;;;;;;;7.67;7.67;;;;;-143.90;58.11;73469.03;4892721;28;102808;-75
2023/08/19 08:43:47;;;;;;;;;9.33;7.00;;;;;-143.90;57.86;73460.78;4893012;28;103220;-76
2023/08/19 08:46:19;;;;;;;;;7.00;7.00;;;;;-143.90;57.67;73435.97;4889056;28;102209;-75
2023/08/19 08:48:47;;;;;;;;;7.00;7.00;;;;;-143.90;55.36;73427.72;4892238;28;102179;-75
2023/08/19 08:51:15;;;;;;;;;7.00;6.00;;;;;-143.90;57.01;73415.31;4888648;28;102204;-75
2023/08/19 08:53:42;;;;;;;;;7.00;6.00;;;;;-143.90;57.37;73407.06;4890363;28;104339;-76
2023/08/19 08:56:09;;;;;;;;;6.33;6.00;;;;;-143.90;54.97;73400.84;4893026;28;102008;-75
2023/08/19 08:58:36;;;;;;;;;8.00;7.67;;;;;-143.90;55.96;73411.19;4900626;28;102075;-75
2023/08/19 09:01:03;;;;;;;;;8.67;7.67;;;;;-143.90;54.83;73402.91;4885711;28;102603;-76
2023/08/19 09:03:33;;;;;;;;;3.25;3.00;;;;;-143.90;55.78;73396.72;4895297;28;104590;-76
2023/08/19 09:06:10;;;;;;;;;10.33;9.67;;;;;-143.90;55.51;73446.31;4890271;28;102317;-76
2023/08/19 09:08:50;;;;;;;;;10.33;10.33;;;;;-143.90;55.63;73423.59;4890348;28;101823;-75
2023/08/19 09:11:22;;;;;;;;;8.33;8.33;;;;;-143.90;54.74;73425.66;4890743;28;102390;-75
2023/08/19 09:13:57;;;;;;;;;9.33;9.33;;;;;-143.90;56.99;73394.66;4889024;28;103678;-76
2023/08/19 09:16:24;;;;;;;;;7.00;7.00;;;;;-143.90;58.25;73380.19;4892901;28;102217;-76
2023/08/19 09:18:51;;;;;;;;;7.00;7.00;;;;;-143.90;53.95;73369.84;4893347;28;102500;-75
2023/08/19 09:21:18;;;;;;;;;9.00;8.00;;;;;-143.90;54.17;73386.38;4889226;28;102312;-75
2023/08/19 09:23:45;;;;;;;;;19.00;17.67;;;;;-143.90;55.07;73411.19;4906321;28;105788;-75
2023/08/19 09:26:12;;;;;;;;;11.00;11.00;;;;;-143.90;54.89;73378.13;4888602;28;102001;-75
2023/08/19 09:28:38;;;;;;;;;10.00;9.67;;;;;-143.90;53.71;73371.91;4891263;28;101836;-76
2023/08/19 09:31:20;;;;;;;;;13.00;12.33;;;;;-143.90;55.05;73386.38;4890753;28;102356;-75
2023/08/19 09:33:48;;;;;;;;;14.33;14.33;;;;;-143.90;55.64;73380.19;4891732;28;104055;-75
2023/08/19 09:36:15;;;;;;;;;11.00;11.00;;;;;-143.90;54.75;73359.53;4890032;28;102231;-75
2023/08/19 09:38:42;;;;;;;;;12.67;12.33;;;;;-143.90;54.73;73349.19;4889389;28;102325;-75
2023/08/19 09:41:12;;;;;;;;;8.50;8.00;;;;;-143.90;53.31;73340.94;4892429;28;102598;-75
2023/08/19 09:43:42;;;;;;;;;9.25;8.50;;;;;-143.90;52.50;73318.19;4889352;28;105364;-75
2023/08/19 09:46:09;;;;;;;;;10.33;10.00;;;;;-143.90;52.68;73322.31;4889514;28;102229;-75
2023/08/19 09:48:36;;;;;;;;;8.00;8.00;;;;;-143.90;54.46;73305.78;4887961;28;102236;-75
2023/08/19 09:51:03;;;;;;;;;9.33;9.00;;;;;-143.90;54.00;73307.84;4893300;28;102154;-76
2023/08/19 09:53:31;;;;;;;;;8.50;6.75;;;;;-143.90;52.78;73299.59;4885953;28;104105;-76
2023/08/19 09:55:58;;;;;;;;;9.33;7.00;;;;;-143.90;51.80;73291.31;4878289;28;102362;-75
2023/08/19 09:58:25;;;;;;;;;8.50;8.00;;;;;-143.90;51.75;73278.94;4889524;28;102483;-75
2023/08/19 10:00:52;;;;;;;;;8.75;8.25;;;;;-143.90;51.44;73274.81;4892733;28;102494;-77
2023/08/19 10:03:19;;;;;;;;;5.25;5.00;;;;;-143.90;52.35;73254.13;4887132;28;103841;-77
2023/08/19 10:05:52;;;;;;;;;8.00;8.00;;;;;-143.90;49.75;73262.41;4887931;28;102203;-77
2023/08/19 10:08:25;;;;;;;;;7.25;6.50;;;;;-143.90;50.31;73245.88;4876518;28;102150;-77
2023/08/19 10:10:53;;;;;;;;;10.33;10.33;;;;;-143.90;47.58;73301.66;4893116;28;102281;-77
2023/08/19 10:13:23;;;;;;;;;15.67;13.00;;;;;-143.90;50.74;73307.84;4891903;28;104239;-77
2023/08/19 10:15:50;;;;;;;;;13.00;12.33;;;;;-143.90;51.59;73281.00;4889180;28;102580;-77
2023/08/19 10:18:21;;;;;;;;;11.33;11.33;;;;;-143.90;49.84;73285.13;4888208;28;103067;-77
2023/08/19 10:20:53;;;;;;;;;11.33;11.00;;;;;-143.90;49.70;73270.66;4891077;28;102072;-75
2023/08/19 10:23:23;;;;;;;;;11.00;11.00;;;;;-143.90;48.17;73276.88;4890961;28;108531;-75
2023/08/19 10:25:50;;;;;;;;;18.00;16.33;;;;;-143.90;48.72;73250.00;4891308;28;102019;-75
2023/08/19 10:28:25;;;;;;;;;12.67;11.67;;;;;-143.90;47.54;73264.47;4888596;28;101947;-75
2023/08/19 10:31:13;;;;;;;;;12.67;12.67;;;;;-143.90;47.66;73243.81;4890416;28;102362;-75
2023/08/19 10:33:44;;;;;;;;;9.75;7.75;;;;;-143.90;50.47;73229.34;4888832;28;108685;-75
2023/08/19 10:36:16;;;;;;;;;9.50;9.50;;;;;-143.90;48.15;73225.19;4891654;28;102019;-75
2023/08/19 10:39:00;;;;;;;;;7.67;6.00;;;;;-143.90;48.69;73216.94;4890796;28;102164;-75
2023/08/19 10:41:29;;;;;;;;;13.00;13.00;;;;;-143.90;48.78;73212.81;4889102;28;102264;-75
2023/08/19 10:44:10;;;;;;;;;11.00;10.00;;;;;-143.90;48.89;73196.28;4890505;28;103375;-75
2023/08/19 10:46:42;;;;;;;;;22.67;22.00;;;;;-143.90;46.28;73283.06;4892326;28;102422;-75
2023/08/19 10:49:14;;;;;;;;;16.33;16.00;;;;;-143.90;49.33;73252.06;4889444;28;102365;-75
2023/08/19 10:51:53;;;;;;;;;14.00;13.00;;;;;-143.90;48.24;73225.19;4892950;28;102283;-75
2023/08/19 10:54:38;;;;;;;;;14.00;13.33;;;;;-143.90;47.94;73212.81;4888678;28;104655;-75
2023/08/19 10:57:11;;;;;;;;;11.33;11.33;;;;;-143.90;46.71;73200.41;4891362;28;101958;-75
2023/08/19 10:59:42;;;;;;;;;12.00;11.00;;;;;-143.90;47.57;73196.28;4889332;28;102210;-75
2023/08/19 11:02:10;;;;;;;;;15.67;15.67;;;;;-143.90;47.39;73219.00;4890049;28;102189;-75
2023/08/19 11:04:42;;;;;;;;;15.67;15.67;;;;;-143.90;47.88;73212.81;4887278;28;104504;-75
2023/08/19 11:07:10;;;;;;;;;11.00;11.00;;;;;-143.90;46.42;73198.34;4889331;28;102100;-75